Ladore — HBY4456 — position and weather

sailwx.info

Track history (hours):
 
Tides and Currents Weather Stations Pressure Air Temp Water Temp Dewpoint Dewpoint Depression Visibility Wind Speed Wind Dir Waves Ship Positions

Ladore

Last reported at 2017-Jun-12 09:40 UTC. Time now 2017-Jun-24 01:41 UTC.
Position N 37°56' E 015°41'.
Warning: this ship's position is 11 days out of date.

Length 17 m.

Type: Sailing vessel. MMSI: 269102720.

Date/timePositionNaut miles runAvg speedWind from/ knotsBaromVisibWave heightAir tempDewpointWater temp
2017-Jun-12 09:40N 37°56' E 015°41'1 6.6
2017-Jun-12 09:29N 37°57' E 015°40'3 6.4
2017-Jun-12 08:59N 37°59' E 015°38'3 5.7
2017-Jun-12 08:30N 38°02' E 015°37'3 5.0
2017-Jun-12 08:00N 38°05' E 015°37'3 5.2
2017-Jun-12 07:30N 38°07' E 015°38'1 1.3
2017-Jun-12 06:55N 38°07' E 015°39'0 0.0
2017-Jun-12 06:28N 38°07' E 015°39'0 0.0
2017-Jun-12 05:58N 38°07' E 015°39'0 0.0
2017-Jun-12 05:28N 38°07' E 015°39'0 0.0
2017-Jun-12 04:58N 38°07' E 015°39'0 0.0
2017-Jun-12 04:25N 38°07' E 015°39'0 0.0
2017-Jun-12 03:58N 38°07' E 015°39'0 0.0
2017-Jun-12 03:28N 38°07' E 015°39'0 0.0
2017-Jun-12 02:58N 38°07' E 015°39'0 0.0
2017-Jun-12 02:28N 38°07' E 015°39'0 0.0
2017-Jun-12 01:58N 38°07' E 015°39'0 0.0
2017-Jun-12 01:28N 38°07' E 015°39'0 0.0
2017-Jun-12 00:58N 38°07' E 015°39'0 0.0
2017-Jun-12 00:28N 38°07' E 015°39'0 0.0
2017-Jun-11 23:58N 38°07' E 015°39'0 0.0
2017-Jun-11 23:28N 38°07' E 015°39'0 0.0
2017-Jun-11 22:58N 38°07' E 015°39'0 0.0
2017-Jun-11 22:28N 38°07' E 015°39'0 0.0
2017-Jun-11 21:58N 38°07' E 015°39'0 0.0
2017-Jun-11 21:28N 38°07' E 015°39'0 0.0
2017-Jun-11 20:58N 38°07' E 015°39'0 0.0
2017-Jun-11 20:28N 38°07' E 015°39'0 0.0
2017-Jun-11 19:58N 38°07' E 015°39'0 0.0
2017-Jun-11 19:28N 38°07' E 015°39'0 0.0
2017-Jun-11 18:58N 38°07' E 015°39'0 0.0
2017-Jun-11 18:28N 38°07' E 015°39'0 0.0
2017-Jun-11 17:58N 38°07' E 015°39'0 0.0
2017-Jun-11 17:28N 38°07' E 015°39'0 0.0
2017-Jun-11 16:58N 38°07' E 015°39'0 0.0
2017-Jun-11 16:22N 38°07' E 015°39'0 0.0
2017-Jun-11 15:55N 38°07' E 015°39'0 0.0
2017-Jun-11 15:28N 38°07' E 015°39'0 0.0
2017-Jun-11 14:58N 38°07' E 015°39'0 0.0
2017-Jun-11 14:28N 38°07' E 015°39'2 1.6
2017-Jun-11 13:30N 38°09' E 015°39'2 4.6
2017-Jun-11 13:00N 38°11' E 015°38'2 4.2
2017-Jun-11 12:30N 38°13' E 015°37'3 5.9
2017-Jun-11 12:00N 38°16' E 015°39'3 6.6
2017-Jun-11 11:30N 38°18' E 015°36'4 7.7
2017-Jun-11 11:00N 38°19' E 015°31'4 7.6
2017-Jun-11 10:28N 38°21' E 015°26'5 7.8
2017-Jun-11 09:53N 38°22' E 015°21'  
2017-Jun-08 13:00N 38°04' E 013°54'3 5.8
2017-Jun-08 12:30N 38°05' E 013°51'3 6.3
2017-Jun-08 12:00N 38°06' E 013°47'4 6.7
2017-Jun-08 11:29N 38°07' E 013°43'3 6.8
2017-Jun-08 10:59N 38°08' E 013°38'3 7.1
2017-Jun-08 10:30N 38°09' E 013°34'3 6.9
2017-Jun-08 10:00N 38°10' E 013°30'2 3.1
2017-Jun-08 09:29N 38°09' E 013°29'3 5.6
2017-Jun-08 09:00N 38°07' E 013°26'3 5.9
2017-Jun-08 08:30N 38°08' E 013°22'0 0.6
2017-Jun-08 07:58N 38°07' E 013°22'0 0.0
2017-Jun-08 07:22N 38°07' E 013°22'0 0.0
2017-Jun-08 06:58N 38°07' E 013°22'0 0.0
2017-Jun-08 06:28N 38°07' E 013°22'0 0.0
2017-Jun-08 05:58N 38°07' E 013°22'0 0.0
2017-Jun-08 05:28N 38°07' E 013°22'0 0.0
2017-Jun-08 04:58N 38°07' E 013°22'0 0.0
2017-Jun-08 04:28N 38°07' E 013°22'0 0.0
2017-Jun-08 03:58N 38°07' E 013°22'0 0.0
2017-Jun-08 03:28N 38°07' E 013°22'0 0.0
2017-Jun-08 02:58N 38°07' E 013°22'0 0.0
2017-Jun-08 02:28N 38°07' E 013°22'0 0.0
2017-Jun-08 01:58N 38°07' E 013°22'0 0.0
2017-Jun-08 01:28N 38°07' E 013°22'0 0.0
2017-Jun-08 00:58N 38°07' E 013°22'0 0.0
2017-Jun-08 00:28N 38°07' E 013°22'0 0.0
2017-Jun-07 23:58N 38°07' E 013°22'0 0.0
2017-Jun-07 23:28N 38°07' E 013°22'0 0.0
2017-Jun-07 22:58N 38°07' E 013°22'0 0.0
2017-Jun-07 22:28N 38°07' E 013°22'0 0.0
2017-Jun-07 21:58N 38°07' E 013°22'0 0.0
2017-Jun-07 21:28N 38°07' E 013°22'0 0.0
2017-Jun-07 20:58N 38°07' E 013°22'0 0.0
2017-Jun-07 20:28N 38°07' E 013°22'0 0.0
2017-Jun-07 19:58N 38°07' E 013°22'0 0.0
2017-Jun-07 19:28N 38°07' E 013°22'0 0.0
2017-Jun-07 18:58N 38°07' E 013°22'0 0.0
2017-Jun-07 18:28N 38°07' E 013°22'0 0.0
2017-Jun-07 17:58N 38°07' E 013°22'0 0.0
2017-Jun-07 17:28N 38°07' E 013°22'0 0.0
2017-Jun-07 16:58N 38°07' E 013°22'0 0.0
2017-Jun-07 16:28N 38°07' E 013°22'0 0.0
2017-Jun-07 15:58N 38°07' E 013°22'0 0.0
2017-Jun-07 15:28N 38°07' E 013°22'0 0.0
2017-Jun-07 14:58N 38°07' E 013°22'0 0.0
2017-Jun-07 13:58N 38°07' E 013°22'0 0.0
2017-Jun-07 13:28N 38°07' E 013°22'0 0.0
2017-Jun-07 12:58N 38°07' E 013°22'0 0.0
2017-Jun-07 12:28N 38°07' E 013°22'0 0.0
2017-Jun-07 11:58N 38°07' E 013°22'0 0.0
2017-Jun-07 11:28N 38°07' E 013°22'0 0.0
2017-Jun-07 10:58N 38°07' E 013°22'0 0.0
2017-Jun-07 10:28N 38°07' E 013°22'0 0.0
2017-Jun-07 09:58N 38°07' E 013°22'0 0.0
2017-Jun-07 09:28N 38°07' E 013°22'0 0.0
2017-Jun-07 08:58N 38°07' E 013°22'0 0.0
2017-Jun-07 08:28N 38°07' E 013°22'0 0.0
2017-Jun-07 07:58N 38°07' E 013°22'0 0.0
2017-Jun-07 07:28N 38°07' E 013°22'0 0.0
2017-Jun-07 06:58N 38°07' E 013°22'0 0.0
2017-Jun-07 06:22N 38°07' E 013°22'0 0.0
2017-Jun-07 05:58N 38°07' E 013°22'0 0.0
2017-Jun-07 05:28N 38°07' E 013°22'0 0.0
2017-Jun-07 04:58N 38°07' E 013°22'0 0.0
2017-Jun-07 04:28N 38°07' E 013°22'0 0.0
2017-Jun-07 03:58N 38°07' E 013°22'0 0.0
2017-Jun-07 03:28N 38°07' E 013°22'0 0.0
2017-Jun-07 02:58N 38°07' E 013°22'0 0.0
2017-Jun-07 02:28N 38°07' E 013°22'0 0.0
2017-Jun-07 01:58N 38°07' E 013°22'0 0.0
2017-Jun-07 01:28N 38°07' E 013°22'0 0.0
2017-Jun-07 00:58N 38°07' E 013°22'0 0.0
2017-Jun-07 00:28N 38°07' E 013°22'0 0.0
2017-Jun-06 23:58N 38°07' E 013°22'0 0.0
2017-Jun-06 23:28N 38°07' E 013°22'0 0.0
2017-Jun-06 22:58N 38°07' E 013°22'0 0.0
2017-Jun-06 22:28N 38°07' E 013°22'0 0.0
2017-Jun-06 21:58N 38°07' E 013°22'0 0.0
2017-Jun-06 21:28N 38°07' E 013°22'0 0.0
2017-Jun-06 20:58N 38°07' E 013°22'0 0.0
2017-Jun-06 20:28N 38°07' E 013°22'0 0.0
2017-Jun-06 19:58N 38°07' E 013°22'0 0.0
2017-Jun-06 19:28N 38°07' E 013°22'0 0.0
2017-Jun-06 18:58N 38°07' E 013°22'0 0.0
2017-Jun-06 18:28N 38°07' E 013°22'0 0.0
2017-Jun-06 17:58N 38°07' E 013°22'0 0.0
2017-Jun-06 17:28N 38°07' E 013°22'0 0.0
2017-Jun-06 16:58N 38°07' E 013°22'0 0.0
2017-Jun-06 16:28N 38°07' E 013°22'0 0.0
2017-Jun-06 15:58N 38°07' E 013°22'0 0.0
2017-Jun-06 15:28N 38°07' E 013°22'0 0.0
2017-Jun-06 14:58N 38°07' E 013°22'0 0.0
2017-Jun-06 14:28N 38°07' E 013°22'0 0.0
2017-Jun-06 13:28N 38°07' E 013°22'0 0.0
2017-Jun-06 12:58N 38°07' E 013°22'0 0.0
2017-Jun-06 12:28N 38°07' E 013°22'0 0.0
2017-Jun-06 11:58N 38°07' E 013°22'0 0.1
2017-Jun-06 11:30N 38°07' E 013°22'2 4.3
2017-Jun-06 11:00N 38°09' E 013°23'4 7.5
2017-Jun-06 10:30N 38°13' E 013°21'4 7.6
2017-Jun-06 10:00N 38°16' E 013°18'4 7.5
2017-Jun-06 09:30N 38°17' E 013°13'4 7.3
2017-Jun-06 09:00N 38°18' E 013°09'4 7.4
2017-Jun-06 08:30N 38°19' E 013°04'121 7.8
2017-Jun-05 16:57N 38°55' E 010°37'6 6.6
2017-Jun-05 15:58N 38°57' E 010°29'11 6.4
2017-Jun-05 14:11N 38°59' E 010°15'6 7.3
2017-Jun-05 13:19N 39°00' E 010°06'4 7.5
2017-Jun-05 12:49N 39°01' E 010°02'3 7.8
2017-Jun-05 12:27N 39°01' E 009°58'5 7.1
2017-Jun-05 11:44N 39°01' E 009°51'2 6.7
2017-Jun-05 11:30N 39°02' E 009°49'8 6.6
2017-Jun-05 10:13N 39°03' E 009°38'9 0.4
2017-Jun-04 13:49N 39°06' E 009°28'4 5.6
2017-Jun-04 13:08N 39°05' E 009°23'2 6.4
2017-Jun-04 12:52N 39°04' E 009°21'2 6.8
2017-Jun-04 12:30N 39°03' E 009°18'3 6.4
2017-Jun-04 12:01N 39°01' E 009°15'3 6.9
2017-Jun-04 11:30N 38°60' E 009°11'3 6.2
2017-Jun-04 11:01N 38°58' E 009°07'11 7.8
2017-Jun-04 09:40N 38°54' E 008°55'3 7.3
2017-Jun-04 09:15N 38°52' E 008°51'2 6.8
2017-Jun-04 09:00N 38°52' E 008°49'3 6.6
2017-Jun-04 08:30N 38°54' E 008°46'2 0.2
2017-Jun-03 20:53N 38°56' E 008°43'0 0.0
2017-Jun-03 20:29N 38°56' E 008°43'0 0.0
2017-Jun-03 19:59N 38°56' E 008°43'0 0.0
2017-Jun-03 19:29N 38°56' E 008°43'0 0.0
2017-Jun-03 18:59N 38°56' E 008°43'0 0.0
2017-Jun-03 18:29N 38°56' E 008°43'0 0.0
2017-Jun-03 17:59N 38°56' E 008°43'0 0.0
2017-Jun-03 17:29N 38°56' E 008°43'0 0.0
2017-Jun-03 16:59N 38°56' E 008°43'0 0.0
2017-Jun-03 16:29N 38°56' E 008°43'1 2.7
2017-Jun-03 15:59N 38°55' E 008°44'3 6.2
2017-Jun-03 15:30N 38°52' E 008°42'3 5.2
2017-Jun-03 14:54N 38°50' E 008°38'2 3.5
2017-Jun-03 14:19N 38°51' E 008°36'17 4.1
2017-Jun-03 10:11N 39°03' E 008°21'2 6.6
2017-Jun-03 09:54N 39°05' E 008°20'4 0.4
2017-Jun-02 22:37N 39°09' E 008°19'  
Track history (hours):
 
Tides and Currents Weather Stations Pressure Air Temp Water Temp Dewpoint Dewpoint Depression Visibility Wind Speed Wind Dir Waves Ship Positions

Ladore

Last reported at 2017-Jun-12 09:40 UTC. Time now 2017-Jun-24 01:41 UTC.
Position N 37°56' E 015°41'.
Warning: this ship's position is 11 days out of date.

Length 17 m.

Type: Sailing vessel. MMSI: 269102720.

Date/timePositionNaut miles runAvg speedWind from/ knotsBaromVisibWave heightAir tempDewpointWater temp
2017-Jun-12 09:40N 37°56' E 015°41'1 6.6
2017-Jun-12 09:29N 37°57' E 015°40'3 6.4
2017-Jun-12 08:59N 37°59' E 015°38'3 5.7
2017-Jun-12 08:30N 38°02' E 015°37'3 5.0
2017-Jun-12 08:00N 38°05' E 015°37'3 5.2
2017-Jun-12 07:30N 38°07' E 015°38'1 1.3
2017-Jun-12 06:55N 38°07' E 015°39'0 0.0
2017-Jun-12 06:28N 38°07' E 015°39'0 0.0
2017-Jun-12 05:58N 38°07' E 015°39'0 0.0
2017-Jun-12 05:28N 38°07' E 015°39'0 0.0
2017-Jun-12 04:58N 38°07' E 015°39'0 0.0
2017-Jun-12 04:25N 38°07' E 015°39'0 0.0
2017-Jun-12 03:58N 38°07' E 015°39'0 0.0
2017-Jun-12 03:28N 38°07' E 015°39'0 0.0
2017-Jun-12 02:58N 38°07' E 015°39'0 0.0
2017-Jun-12 02:28N 38°07' E 015°39'0 0.0
2017-Jun-12 01:58N 38°07' E 015°39'0 0.0
2017-Jun-12 01:28N 38°07' E 015°39'0 0.0
2017-Jun-12 00:58N 38°07' E 015°39'0 0.0
2017-Jun-12 00:28N 38°07' E 015°39'0 0.0
2017-Jun-11 23:58N 38°07' E 015°39'0 0.0
2017-Jun-11 23:28N 38°07' E 015°39'0 0.0
2017-Jun-11 22:58N 38°07' E 015°39'0 0.0
2017-Jun-11 22:28N 38°07' E 015°39'0 0.0
2017-Jun-11 21:58N 38°07' E 015°39'0 0.0
2017-Jun-11 21:28N 38°07' E 015°39'0 0.0
2017-Jun-11 20:58N 38°07' E 015°39'0 0.0
2017-Jun-11 20:28N 38°07' E 015°39'0 0.0
2017-Jun-11 19:58N 38°07' E 015°39'0 0.0
2017-Jun-11 19:28N 38°07' E 015°39'0 0.0
2017-Jun-11 18:58N 38°07' E 015°39'0 0.0
2017-Jun-11 18:28N 38°07' E 015°39'0 0.0
2017-Jun-11 17:58N 38°07' E 015°39'0 0.0
2017-Jun-11 17:28N 38°07' E 015°39'0 0.0
2017-Jun-11 16:58N 38°07' E 015°39'0 0.0
2017-Jun-11 16:22N 38°07' E 015°39'0 0.0
2017-Jun-11 15:55N 38°07' E 015°39'0 0.0
2017-Jun-11 15:28N 38°07' E 015°39'0 0.0
2017-Jun-11 14:58N 38°07' E 015°39'0 0.0
2017-Jun-11 14:28N 38°07' E 015°39'2 1.6
2017-Jun-11 13:30N 38°09' E 015°39'2 4.6
2017-Jun-11 13:00N 38°11' E 015°38'2 4.2
2017-Jun-11 12:30N 38°13' E 015°37'3 5.9
2017-Jun-11 12:00N 38°16' E 015°39'3 6.6
2017-Jun-11 11:30N 38°18' E 015°36'4 7.7
2017-Jun-11 11:00N 38°19' E 015°31'4 7.6
2017-Jun-11 10:28N 38°21' E 015°26'5 7.8
2017-Jun-11 09:53N 38°22' E 015°21'  
2017-Jun-08 13:00N 38°04' E 013°54'3 5.8
2017-Jun-08 12:30N 38°05' E 013°51'3 6.3
2017-Jun-08 12:00N 38°06' E 013°47'4 6.7
2017-Jun-08 11:29N 38°07' E 013°43'3 6.8
2017-Jun-08 10:59N 38°08' E 013°38'3 7.1
2017-Jun-08 10:30N 38°09' E 013°34'3 6.9
2017-Jun-08 10:00N 38°10' E 013°30'2 3.1
2017-Jun-08 09:29N 38°09' E 013°29'3 5.6
2017-Jun-08 09:00N 38°07' E 013°26'3 5.9
2017-Jun-08 08:30N 38°08' E 013°22'0 0.6
2017-Jun-08 07:58N 38°07' E 013°22'0 0.0
2017-Jun-08 07:22N 38°07' E 013°22'0 0.0
2017-Jun-08 06:58N 38°07' E 013°22'0 0.0
2017-Jun-08 06:28N 38°07' E 013°22'0 0.0
2017-Jun-08 05:58N 38°07' E 013°22'0 0.0
2017-Jun-08 05:28N 38°07' E 013°22'0 0.0
2017-Jun-08 04:58N 38°07' E 013°22'0 0.0
2017-Jun-08 04:28N 38°07' E 013°22'0 0.0
2017-Jun-08 03:58N 38°07' E 013°22'0 0.0
2017-Jun-08 03:28N 38°07' E 013°22'0 0.0
2017-Jun-08 02:58N 38°07' E 013°22'0 0.0
2017-Jun-08 02:28N 38°07' E 013°22'0 0.0
2017-Jun-08 01:58N 38°07' E 013°22'0 0.0
2017-Jun-08 01:28N 38°07' E 013°22'0 0.0
2017-Jun-08 00:58N 38°07' E 013°22'0 0.0
2017-Jun-08 00:28N 38°07' E 013°22'0 0.0
2017-Jun-07 23:58N 38°07' E 013°22'0 0.0
2017-Jun-07 23:28N 38°07' E 013°22'0 0.0
2017-Jun-07 22:58N 38°07' E 013°22'0 0.0
2017-Jun-07 22:28N 38°07' E 013°22'0 0.0
2017-Jun-07 21:58N 38°07' E 013°22'0 0.0
2017-Jun-07 21:28N 38°07' E 013°22'0 0.0
2017-Jun-07 20:58N 38°07' E 013°22'0 0.0
2017-Jun-07 20:28N 38°07' E 013°22'0 0.0
2017-Jun-07 19:58N 38°07' E 013°22'0 0.0
2017-Jun-07 19:28N 38°07' E 013°22'0 0.0
2017-Jun-07 18:58N 38°07' E 013°22'0 0.0
2017-Jun-07 18:28N 38°07' E 013°22'0 0.0
2017-Jun-07 17:58N 38°07' E 013°22'0 0.0
2017-Jun-07 17:28N 38°07' E 013°22'0 0.0
2017-Jun-07 16:58N 38°07' E 013°22'0 0.0
2017-Jun-07 16:28N 38°07' E 013°22'0 0.0
2017-Jun-07 15:58N 38°07' E 013°22'0 0.0
2017-Jun-07 15:28N 38°07' E 013°22'0 0.0
2017-Jun-07 14:58N 38°07' E 013°22'0 0.0
2017-Jun-07 13:58N 38°07' E 013°22'0 0.0
2017-Jun-07 13:28N 38°07' E 013°22'0 0.0
2017-Jun-07 12:58N 38°07' E 013°22'0 0.0
2017-Jun-07 12:28N 38°07' E 013°22'0 0.0
2017-Jun-07 11:58N 38°07' E 013°22'0 0.0
2017-Jun-07 11:28N 38°07' E 013°22'0 0.0
2017-Jun-07 10:58N 38°07' E 013°22'0 0.0
2017-Jun-07 10:28N 38°07' E 013°22'0 0.0
2017-Jun-07 09:58N 38°07' E 013°22'0 0.0
2017-Jun-07 09:28N 38°07' E 013°22'0 0.0
2017-Jun-07 08:58N 38°07' E 013°22'0 0.0
2017-Jun-07 08:28N 38°07' E 013°22'0 0.0
2017-Jun-07 07:58N 38°07' E 013°22'0 0.0
2017-Jun-07 07:28N 38°07' E 013°22'0 0.0
2017-Jun-07 06:58N 38°07' E 013°22'0 0.0
2017-Jun-07 06:22N 38°07' E 013°22'0 0.0
2017-Jun-07 05:58N 38°07' E 013°22'0 0.0
2017-Jun-07 05:28N 38°07' E 013°22'0 0.0
2017-Jun-07 04:58N 38°07' E 013°22'0 0.0
2017-Jun-07 04:28N 38°07' E 013°22'0 0.0
2017-Jun-07 03:58N 38°07' E 013°22'0 0.0
2017-Jun-07 03:28N 38°07' E 013°22'0 0.0
2017-Jun-07 02:58N 38°07' E 013°22'0 0.0
2017-Jun-07 02:28N 38°07' E 013°22'0 0.0
2017-Jun-07 01:58N 38°07' E 013°22'0 0.0
2017-Jun-07 01:28N 38°07' E 013°22'0 0.0
2017-Jun-07 00:58N 38°07' E 013°22'0 0.0
2017-Jun-07 00:28N 38°07' E 013°22'0 0.0
2017-Jun-06 23:58N 38°07' E 013°22'0 0.0
2017-Jun-06 23:28N 38°07' E 013°22'0 0.0
2017-Jun-06 22:58N 38°07' E 013°22'0 0.0
2017-Jun-06 22:28N 38°07' E 013°22'0 0.0
2017-Jun-06 21:58N 38°07' E 013°22'0 0.0
2017-Jun-06 21:28N 38°07' E 013°22'0 0.0
2017-Jun-06 20:58N 38°07' E 013°22'0 0.0
2017-Jun-06 20:28N 38°07' E 013°22'0 0.0
2017-Jun-06 19:58N 38°07' E 013°22'0 0.0
2017-Jun-06 19:28N 38°07' E 013°22'0 0.0
2017-Jun-06 18:58N 38°07' E 013°22'0 0.0
2017-Jun-06 18:28N 38°07' E 013°22'0 0.0
2017-Jun-06 17:58N 38°07' E 013°22'0 0.0
2017-Jun-06 17:28N 38°07' E 013°22'0 0.0
2017-Jun-06 16:58N 38°07' E 013°22'0 0.0
2017-Jun-06 16:28N 38°07' E 013°22'0 0.0
2017-Jun-06 15:58N 38°07' E 013°22'0 0.0
2017-Jun-06 15:28N 38°07' E 013°22'0 0.0
2017-Jun-06 14:58N 38°07' E 013°22'0 0.0
2017-Jun-06 14:28N 38°07' E 013°22'0 0.0
2017-Jun-06 13:28N 38°07' E 013°22'0 0.0
2017-Jun-06 12:58N 38°07' E 013°22'0 0.0
2017-Jun-06 12:28N 38°07' E 013°22'0 0.0
2017-Jun-06 11:58N 38°07' E 013°22'0 0.1
2017-Jun-06 11:30N 38°07' E 013°22'2 4.3
2017-Jun-06 11:00N 38°09' E 013°23'4 7.5
2017-Jun-06 10:30N 38°13' E 013°21'4 7.6
2017-Jun-06 10:00N 38°16' E 013°18'4 7.5
2017-Jun-06 09:30N 38°17' E 013°13'4 7.3
2017-Jun-06 09:00N 38°18' E 013°09'4 7.4
2017-Jun-06 08:30N 38°19' E 013°04'121 7.8
2017-Jun-05 16:57N 38°55' E 010°37'6 6.6
2017-Jun-05 15:58N 38°57' E 010°29'11 6.4
2017-Jun-05 14:11N 38°59' E 010°15'6 7.3
2017-Jun-05 13:19N 39°00' E 010°06'4 7.5
2017-Jun-05 12:49N 39°01' E 010°02'3 7.8
2017-Jun-05 12:27N 39°01' E 009°58'5 7.1
2017-Jun-05 11:44N 39°01' E 009°51'2 6.7
2017-Jun-05 11:30N 39°02' E 009°49'8 6.6
2017-Jun-05 10:13N 39°03' E 009°38'9 0.4
2017-Jun-04 13:49N 39°06' E 009°28'4 5.6
2017-Jun-04 13:08N 39°05' E 009°23'2 6.4
2017-Jun-04 12:52N 39°04' E 009°21'2 6.8
2017-Jun-04 12:30N 39°03' E 009°18'3 6.4
2017-Jun-04 12:01N 39°01' E 009°15'3 6.9
2017-Jun-04 11:30N 38°60' E 009°11'3 6.2
2017-Jun-04 11:01N 38°58' E 009°07'11 7.8
2017-Jun-04 09:40N 38°54' E 008°55'3 7.3
2017-Jun-04 09:15N 38°52' E 008°51'2 6.8
2017-Jun-04 09:00N 38°52' E 008°49'3 6.6
2017-Jun-04 08:30N 38°54' E 008°46'2 0.2
2017-Jun-03 20:53N 38°56' E 008°43'0 0.0
2017-Jun-03 20:29N 38°56' E 008°43'0 0.0
2017-Jun-03 19:59N 38°56' E 008°43'0 0.0
2017-Jun-03 19:29N 38°56' E 008°43'0 0.0
2017-Jun-03 18:59N 38°56' E 008°43'0 0.0
2017-Jun-03 18:29N 38°56' E 008°43'0 0.0
2017-Jun-03 17:59N 38°56' E 008°43'0 0.0
2017-Jun-03 17:29N 38°56' E 008°43'0 0.0
2017-Jun-03 16:59N 38°56' E 008°43'0 0.0
2017-Jun-03 16:29N 38°56' E 008°43'1 2.7
2017-Jun-03 15:59N 38°55' E 008°44'3 6.2
2017-Jun-03 15:30N 38°52' E 008°42'3 5.2
2017-Jun-03 14:54N 38°50' E 008°38'2 3.5
2017-Jun-03 14:19N 38°51' E 008°36'17 4.1
2017-Jun-03 10:11N 39°03' E 008°21'2 6.6
2017-Jun-03 09:54N 39°05' E 008°20'4 0.4
2017-Jun-02 22:37N 39°09' E 008°19'  

Dump ship's entire track history